Time;durP1;ratioP1;P1;durP2;ratioP2;P2;SDS_P1;SDS_P2;PMS_P1;PMS_P2;Temp;Humidity;BMP_temperature;BMP_pressure;BME280_temperature;BME280_humidity;BME280_pressure;Samples;Min_cycle;Max_cycle;Signal;HPM_P1;HPM_P2
2023/03/01 00:02:04;;;;;;;13.13;7.00;;;-0.60;99.90;;;;;;5071754;28;20025;-57
2023/03/01 00:04:30;;;;;;;13.53;6.97;;;-0.70;99.90;;;;;;5071352;28;20469;-57
2023/03/01 00:06:56;;;;;;;13.03;7.23;;;-0.70;99.90;;;;;;5071615;28;20443;-57
2023/03/01 00:09:21;;;;;;;12.70;7.30;;;-0.70;99.90;;;;;;5071188;28;20028;-57
2023/03/01 00:11:47;;;;;;;13.83;7.27;;;-0.60;99.90;;;;;;5071863;28;20063;-58
2023/03/01 00:14:13;;;;;;;13.87;7.37;;;-0.70;99.90;;;;;;5071034;28;20078;-58
2023/03/01 00:16:41;;;;;;;15.57;7.17;;;-0.70;99.90;;;;;;5071166;28;20461;-57
2023/03/01 00:19:12;;;;;;;12.30;7.63;;;-0.70;99.90;;;;;;5071103;28;20503;-57
2023/03/01 00:21:38;;;;;;;15.43;8.10;;;-0.70;99.90;;;;;;5071382;28;20958;-57
2023/03/01 00:24:04;;;;;;;19.57;7.97;;;-0.70;99.90;;;;;;5053077;28;20450;-57
2023/03/01 00:26:30;;;;;;;13.37;7.77;;;-0.70;99.90;;;;;;5071069;28;20032;-57
2023/03/01 00:28:58;;;;;;;17.50;7.23;;;-0.80;99.90;;;;;;5071142;28;20439;-58
2023/03/01 00:31:26;;;;;;;13.10;7.50;;;-0.80;99.90;;;;;;5071317;28;21023;-57
2023/03/01 00:33:57;;;;;;;15.23;7.13;;;-0.80;99.90;;;;;;5053096;28;20443;-57
2023/03/01 00:36:25;;;;;;;14.07;7.93;;;-0.80;99.90;;;;;;5053011;28;20478;-56
2023/03/01 00:38:51;;;;;;;16.10;7.77;;;-0.80;99.90;;;;;;5071164;28;20857;-57
2023/03/01 00:41:18;;;;;;;14.13;7.57;;;-0.80;99.90;;;;;;5071028;28;20434;-58
2023/03/01 00:43:44;;;;;;;18.60;7.53;;;-0.80;99.90;;;;;;5070962;28;20067;-56
2023/03/01 00:46:16;;;;;;;13.97;7.50;;;-0.80;99.90;;;;;;5071130;28;20438;-57
2023/03/01 00:48:42;;;;;;;13.40;7.83;;;-0.80;99.90;;;;;;5052983;28;20549;-58
2023/03/01 00:51:28;;;;;;;14.87;8.03;;;-0.80;99.90;;;;;;5053000;28;20530;-58
2023/03/01 00:53:58;;;;;;;13.60;7.97;;;-0.80;99.90;;;;;;5070738;28;20550;-57
2023/03/01 00:56:24;;;;;;;14.87;8.10;;;-0.80;99.90;;;;;;5070528;28;20455;-56
2023/03/01 00:58:50;;;;;;;14.60;7.93;;;-0.90;99.90;;;;;;5070786;28;20439;-57
2023/03/01 01:01:19;;;;;;;12.80;7.00;;;-0.90;99.90;;;;;;5070888;28;20441;-57
2023/03/01 01:04:00;;;;;;;13.73;7.63;;;-0.90;99.90;;;;;;5070728;28;20032;-56
2023/03/01 01:06:28;;;;;;;12.63;7.60;;;-0.90;99.90;;;;;;5070531;28;20055;-57
2023/03/01 01:08:54;;;;;;;15.03;7.80;;;-1.00;99.90;;;;;;5070456;28;20893;-56
2023/03/01 01:11:22;;;;;;;11.83;7.10;;;-1.00;99.90;;;;;;5052781;28;20072;-56
2023/03/01 01:13:48;;;;;;;12.10;7.30;;;-1.00;99.90;;;;;;5052555;28;20032;-57
2023/03/01 01:16:15;;;;;;;11.97;7.83;;;-1.00;99.90;;;;;;5052457;28;20435;-56
2023/03/01 01:18:41;;;;;;;13.77;7.53;;;-1.00;99.90;;;;;;5070204;28;20812;-58
2023/03/01 01:21:11;;;;;;;15.23;8.00;;;-1.00;99.90;;;;;;5052493;28;21033;-58
2023/03/01 01:23:38;;;;;;;14.35;7.78;;;-1.10;99.90;;;;;;5052409;28;20434;-58
2023/03/01 01:26:11;;;;;;;12.90;7.77;;;-1.10;99.90;;;;;;5070379;28;20116;-57
2023/03/01 01:28:37;;;;;;;15.80;7.93;;;-1.10;99.90;;;;;;5070172;28;20427;-58
2023/03/01 01:31:04;;;;;;;14.83;8.07;;;-1.10;99.90;;;;;;5052319;28;20496;-58
2023/03/01 01:33:30;;;;;;;15.67;8.33;;;-1.20;99.90;;;;;;5070181;28;20505;-58
2023/03/01 01:35:56;;;;;;;11.47;7.23;;;-1.20;99.90;;;;;;5070432;28;20799;-58
2023/03/01 01:38:22;;;;;;;13.83;7.67;;;-1.20;99.90;;;;;;5069828;28;20463;-57
2023/03/01 01:40:49;;;;;;;15.47;7.93;;;-1.20;99.90;;;;;;5070243;28;20025;-58
2023/03/01 01:43:46;;;;;;;14.67;8.47;;;-1.20;99.90;;;;;;5052160;28;20423;-57
2023/03/01 01:46:29;;;;;;;14.40;8.33;;;-1.20;99.90;;;;;;5070254;28;20737;-57
2023/03/01 01:49:23;;;;;;;16.90;8.70;;;-1.20;99.90;;;;;;5070088;28;20529;-58
2023/03/01 01:51:55;;;;;;;17.33;8.17;;;-1.20;99.90;;;;;;5070118;28;20830;-58
2023/03/01 01:54:27;;;;;;;14.80;7.97;;;-1.30;99.90;;;;;;5069876;28;20422;-57
2023/03/01 01:56:58;;;;;;;18.13;8.40;;;-1.30;99.90;;;;;;5052002;28;20474;-57
2023/03/01 01:59:25;;;;;;;17.13;8.73;;;-1.30;99.90;;;;;;5070029;28;20443;-58
2023/03/01 02:01:52;;;;;;;18.77;8.77;;;-1.30;99.90;;;;;;5069972;28;20438;-58
2023/03/01 02:04:18;;;;;;;13.30;8.30;;;-1.40;99.90;;;;;;5051680;28;20435;-58
2023/03/01 02:06:55;;;;;;;11.83;8.00;;;-1.40;99.90;;;;;;5069645;28;20438;-56
2023/03/01 02:09:22;;;;;;;13.13;8.17;;;-1.40;99.90;;;;;;5054398;28;20439;-55
2023/03/01 02:11:50;;;;;;;17.53;8.47;;;-1.30;99.90;;;;;;5055710;28;20439;-56
2023/03/01 02:14:16;;;;;;;15.23;8.03;;;-1.40;99.90;;;;;;5073360;28;20440;-55
2023/03/01 02:16:43;;;;;;;16.10;8.83;;;-1.40;99.90;;;;;;5073346;28;21005;-55
2023/03/01 02:19:18;;;;;;;15.50;8.30;;;-1.40;99.90;;;;;;5073239;28;20443;-57
2023/03/01 02:22:27;;;;;;;13.53;8.20;;;-1.40;99.90;;;;;;5073425;28;20522;-57
2023/03/01 02:25:18;;;;;;;14.02;8.57;;;-1.40;99.90;;;;;;5070082;28;20545;-56
2023/03/01 02:28:16;;;;;;;14.47;8.40;;;-1.40;99.90;;;;;;5055131;28;20062;-56
2023/03/01 02:31:41;;;;;;;14.53;8.53;;;-1.40;99.90;;;;;;5073374;28;20446;-56
2023/03/01 02:33:35;;;;;;;15.23;8.27;;;-1.50;99.90;;;;;;5072961;28;20443;-57
2023/03/01 02:36:06;;;;;;;15.37;8.37;;;-1.50;99.90;;;;;;5073165;28;20442;-57
2023/03/01 02:38:32;;;;;;;12.57;8.10;;;-1.50;99.90;;;;;;5054749;28;20489;-57
2023/03/01 02:40:59;;;;;;;18.63;9.47;;;-1.50;99.90;;;;;;5073087;28;20426;-57
2023/03/01 02:43:30;;;;;;;16.83;8.67;;;-1.50;99.90;;;;;;5054794;28;21088;-56
2023/03/01 02:45:59;;;;;;;17.70;8.63;;;-1.50;99.90;;;;;;5073048;28;20488;-57
2023/03/01 02:48:25;;;;;;;14.02;8.75;;;-1.50;99.90;;;;;;5054645;28;20541;-57
2023/03/01 02:51:07;;;;;;;18.50;8.80;;;-1.50;99.90;;;;;;5055017;28;20131;-56
2023/03/01 02:53:48;;;;;;;17.20;8.47;;;-1.50;99.90;;;;;;5054668;28;20496;-57
2023/03/01 02:56:14;;;;;;;16.63;9.20;;;-1.50;99.90;;;;;;5072734;28;20443;-56
2023/03/01 02:58:46;;;;;;;22.43;8.73;;;-1.50;99.90;;;;;;5054479;28;20435;-57
2023/03/01 03:01:14;;;;;;;19.10;8.97;;;-1.60;99.90;;;;;;5054785;28;20500;-57
2023/03/01 03:03:41;;;;;;;14.93;8.83;;;-1.60;99.90;;;;;;5054492;28;20826;-57
2023/03/01 03:06:07;;;;;;;14.93;8.70;;;-1.60;99.90;;;;;;5054645;28;20792;-57
2023/03/01 03:08:33;;;;;;;16.83;8.80;;;-1.70;99.90;;;;;;5054226;28;20439;-56
2023/03/01 03:10:59;;;;;;;15.83;8.43;;;-1.60;99.90;;;;;;5054635;28;20032;-56
2023/03/01 03:13:28;;;;;;;16.27;8.53;;;-1.70;99.90;;;;;;5054280;28;20021;-55
2023/03/01 03:15:55;;;;;;;15.60;9.13;;;-1.60;99.90;;;;;;5072805;28;20586;-57
2023/03/01 03:18:25;;;;;;;18.03;9.37;;;-1.70;99.90;;;;;;5054022;28;20037;-57
2023/03/01 03:20:53;;;;;;;17.17;8.83;;;-1.70;99.90;;;;;;5072039;28;20510;-56
2023/03/01 03:23:20;;;;;;;19.10;9.83;;;-1.70;99.90;;;;;;5072097;28;20792;-56
2023/03/01 03:25:49;;;;;;;19.20;9.67;;;-1.70;99.90;;;;;;5072170;28;20467;-57
2023/03/01 03:28:15;;;;;;;14.87;8.80;;;-1.70;99.90;;;;;;5071793;28;20446;-57
2023/03/01 03:30:42;;;;;;;15.73;8.53;;;-1.70;99.90;;;;;;5072257;28;20782;-57
2023/03/01 03:33:12;;;;;;;17.43;9.27;;;-1.70;99.90;;;;;;5071905;28;20430;-57
2023/03/01 03:35:42;;;;;;;16.77;8.87;;;-1.70;99.90;;;;;;5071916;28;20479;-57
2023/03/01 03:38:15;;;;;;;19.90;9.20;;;-1.70;99.90;;;;;;5071543;28;20471;-58
2023/03/01 03:40:42;;;;;;;15.60;8.90;;;-1.80;99.90;;;;;;5072025;28;20044;-57
2023/03/01 03:43:15;;;;;;;18.53;9.30;;;-1.80;99.90;;;;;;5072021;28;20439;-56
2023/03/01 03:45:43;;;;;;;20.50;10.90;;;-1.80;99.90;;;;;;5053914;28;20768;-57
2023/03/01 03:48:09;;;;;;;15.73;9.00;;;-1.80;99.90;;;;;;5071557;28;20455;-57
2023/03/01 03:50:36;;;;;;;15.43;9.30;;;-1.80;99.90;;;;;;5071619;28;20426;-57
2023/03/01 03:53:05;;;;;;;16.00;8.87;;;-1.80;99.90;;;;;;5071556;28;20435;-57
2023/03/01 03:55:30;;;;;;;15.40;8.47;;;-1.90;99.90;;;;;;5053650;28;20430;-57
2023/03/01 03:58:06;;;;;;;16.80;9.40;;;-1.90;99.90;;;;;;5071322;28;20462;-57
2023/03/01 04:00:33;;;;;;;17.13;8.77;;;-1.90;99.90;;;;;;5071511;28;20139;-57
2023/03/01 04:03:00;;;;;;;16.63;9.90;;;-1.90;99.90;;;;;;5071444;28;20799;-57
2023/03/01 04:05:26;;;;;;;16.47;9.07;;;-1.90;99.90;;;;;;5071136;28;20430;-58
2023/03/01 04:08:00;;;;;;;15.87;9.37;;;-1.90;99.90;;;;;;5071240;28;20437;-58
2023/03/01 04:10:31;;;;;;;19.03;9.40;;;-1.90;99.90;;;;;;5071648;28;20454;-56
2023/03/01 04:12:58;;;;;;;16.13;8.80;;;-1.90;99.90;;;;;;5071303;28;20525;-57
2023/03/01 04:15:25;;;;;;;18.37;9.53;;;-2.00;99.90;;;;;;5070936;28;20422;-57
2023/03/01 04:17:53;;;;;;;19.93;9.77;;;-2.00;99.90;;;;;;5070705;28;20451;-57
2023/03/01 04:20:25;;;;;;;18.57;9.17;;;-2.00;99.90;;;;;;5071325;28;20880;-56
2023/03/01 04:22:57;;;;;;;17.03;9.37;;;-2.10;99.90;;;;;;5071178;28;20423;-56
2023/03/01 04:25:23;;;;;;;17.17;9.30;;;-2.00;99.90;;;;;;5070837;28;20542;-56
2023/03/01 04:27:52;;;;;;;20.88;9.20;;;-2.10;99.90;;;;;;5071231;28;20476;-57
2023/03/01 04:30:17;;;;;;;15.73;8.87;;;-2.10;99.90;;;;;;5070538;28;20063;-57
2023/03/01 04:32:43;;;;;;;17.47;8.80;;;-2.10;99.90;;;;;;5070609;28;20481;-56
2023/03/01 04:35:09;;;;;;;17.23;9.10;;;-2.10;99.90;;;;;;5070757;28;20020;-56
2023/03/01 04:37:35;;;;;;;18.03;10.43;;;-2.10;99.90;;;;;;5052692;28;20120;-57
2023/03/01 04:40:12;;;;;;;18.00;10.00;;;-2.10;99.90;;;;;;5083678;22;20051;-57
2023/03/01 04:42:38;;;;;;;14.90;8.57;;;-2.10;99.90;;;;;;5070700;28;20441;-55
2023/03/01 04:45:12;;;;;;;16.80;9.17;;;-2.10;99.90;;;;;;5070603;28;21008;-58
2023/03/01 04:47:39;;;;;;;19.23;9.50;;;-2.10;99.90;;;;;;5070645;28;20438;-58
2023/03/01 04:50:07;;;;;;;20.83;9.73;;;-2.10;99.90;;;;;;5052562;28;20459;-56
2023/03/01 04:52:32;;;;;;;16.53;9.07;;;-2.20;99.90;;;;;;5070547;28;21024;-56
2023/03/01 04:54:58;;;;;;;19.70;9.40;;;-2.20;99.90;;;;;;5070792;28;20533;-56
2023/03/01 04:57:24;;;;;;;17.40;9.97;;;-2.20;99.90;;;;;;5070293;28;20216;-56
2023/03/01 04:59:49;;;;;;;18.83;9.30;;;-2.10;99.90;;;;;;5070641;28;20027;-57
2023/03/01 05:02:15;;;;;;;18.67;9.23;;;-2.10;99.90;;;;;;5070837;28;20523;-57
2023/03/01 05:04:41;;;;;;;18.27;9.17;;;-2.10;99.90;;;;;;5070265;28;20025;-57
2023/03/01 05:07:06;;;;;;;16.40;9.70;;;-2.10;99.90;;;;;;5070351;28;20077;-57
2023/03/01 05:09:32;;;;;;;17.87;9.50;;;-2.10;99.90;;;;;;5070287;28;20032;-57
2023/03/01 05:11:58;;;;;;;20.60;9.63;;;-2.20;99.90;;;;;;5070397;28;20037;-56
2023/03/01 05:14:23;;;;;;;18.50;9.97;;;-2.20;99.90;;;;;;5070267;28;20312;-57
2023/03/01 05:16:49;;;;;;;20.23;9.80;;;-2.20;99.90;;;;;;5070190;28;20052;-56
2023/03/01 05:19:15;;;;;;;20.13;9.67;;;-2.20;99.90;;;;;;5070181;28;20380;-56
2023/03/01 05:24:26;;;;;;;17.70;9.47;;;-2.20;99.90;;;;;;5069989;28;20055;-56
2023/03/01 05:26:52;;;;;;;21.37;10.23;;;-2.20;99.90;;;;;;5070186;28;20950;-56
2023/03/01 05:29:24;;;;;;;18.57;9.97;;;-2.20;99.90;;;;;;5070164;28;20033;-56
2023/03/01 05:31:58;;;;;;;18.00;9.23;;;-2.20;99.90;;;;;;5070260;28;20427;-56
2023/03/01 05:34:26;;;;;;;18.90;10.13;;;-2.20;99.90;;;;;;5069907;28;20469;-56
2023/03/01 05:36:53;;;;;;;20.03;10.03;;;-2.20;99.90;;;;;;5069996;28;20490;-56
2023/03/01 05:39:24;;;;;;;19.03;10.13;;;-2.20;99.90;;;;;;5069953;28;20499;-56
2023/03/01 05:41:55;;;;;;;22.03;11.70;;;-2.20;99.90;;;;;;5070272;28;20970;-56
2023/03/01 05:44:21;;;;;;;19.77;10.40;;;-2.30;99.90;;;;;;5072757;28;20429;-56
2023/03/01 05:46:47;;;;;;;20.20;10.13;;;-2.30;99.90;;;;;;5073878;28;20438;-56
2023/03/01 05:49:15;;;;;;;21.20;11.10;;;-2.30;99.90;;;;;;5073850;28;20449;-56
2023/03/01 05:51:41;;;;;;;21.70;10.93;;;-2.30;99.90;;;;;;5074079;28;20427;-56
2023/03/01 05:54:07;;;;;;;21.40;10.73;;;-2.30;99.90;;;;;;5073824;28;20795;-57
2023/03/01 05:56:34;;;;;;;21.77;10.43;;;-2.30;99.90;;;;;;5073506;28;20460;-57
2023/03/01 05:59:00;;;;;;;18.30;9.90;;;-2.30;99.90;;;;;;5073643;28;20495;-57
2023/03/01 06:01:26;;;;;;;20.20;9.87;;;-2.30;99.90;;;;;;5073757;28;20986;-57
2023/03/01 06:03:52;;;;;;;20.20;10.20;;;-2.30;99.90;;;;;;5073873;28;20418;-57
2023/03/01 06:06:18;;;;;;;17.47;9.63;;;-2.30;99.90;;;;;;5073570;28;20032;-57
2023/03/01 06:08:43;;;;;;;19.37;9.73;;;-2.30;99.90;;;;;;5073456;28;20027;-57
2023/03/01 06:11:09;;;;;;;18.47;9.90;;;-2.30;99.90;;;;;;5073910;28;20477;-57
2023/03/01 06:13:35;;;;;;;18.20;9.87;;;-2.30;99.90;;;;;;5073341;28;20098;-57
2023/03/01 06:16:00;;;;;;;21.13;10.07;;;-2.30;99.90;;;;;;5055648;28;20032;-57
2023/03/01 06:18:26;;;;;;;23.17;9.90;;;-2.30;99.90;;;;;;5072975;28;20029;-57
2023/03/01 06:20:53;;;;;;;19.07;10.37;;;-2.30;99.90;;;;;;5055694;28;20497;-57
2023/03/01 06:23:19;;;;;;;20.47;9.20;;;-2.30;99.90;;;;;;5073331;28;20145;-57
2023/03/01 06:25:45;;;;;;;24.53;9.60;;;-2.30;99.90;;;;;;5073449;28;21028;-57
2023/03/01 06:28:10;;;;;;;20.00;9.70;;;-2.30;99.90;;;;;;5073055;28;20112;-57
2023/03/01 06:30:36;;;;;;;19.07;10.00;;;-2.30;99.90;;;;;;5073322;28;20090;-57
2023/03/01 06:33:05;;;;;;;17.50;9.73;;;-2.30;99.90;;;;;;5072999;28;20043;-57
2023/03/01 06:35:31;;;;;;;17.98;8.93;;;-2.30;99.90;;;;;;5072920;28;20499;-56
2023/03/01 06:37:59;;;;;;;18.43;9.80;;;-2.30;99.90;;;;;;5072805;28;20037;-57
2023/03/01 06:40:25;;;;;;;19.43;9.97;;;-2.30;99.90;;;;;;5072753;28;20445;-56
2023/03/01 06:42:51;;;;;;;19.30;10.20;;;-2.20;99.90;;;;;;5073023;28;20434;-56
2023/03/01 06:45:19;;;;;;;20.03;9.63;;;-2.20;99.90;;;;;;5072756;28;20025;-56
2023/03/01 06:47:44;;;;;;;23.60;10.27;;;-2.20;99.90;;;;;;5072534;28;20442;-56
2023/03/01 06:50:11;;;;;;;21.77;9.77;;;-2.20;99.90;;;;;;5072935;28;20996;-56
2023/03/01 06:52:37;;;;;;;17.83;10.00;;;-2.10;99.90;;;;;;5072824;28;20039;-57
2023/03/01 06:55:03;;;;;;;22.30;10.77;;;-2.10;99.90;;;;;;5072128;28;20533;-57
2023/03/01 06:57:28;;;;;;;21.03;10.30;;;-2.10;99.90;;;;;;5054577;28;20111;-56
2023/03/01 06:59:54;;;;;;;19.10;10.20;;;-2.10;99.90;;;;;;5072692;28;20021;-57
2023/03/01 07:02:20;;;;;;;21.27;9.47;;;-2.00;99.90;;;;;;5072629;28;20567;-56
2023/03/01 07:04:46;;;;;;;18.07;9.87;;;-2.00;99.90;;;;;;5072469;28;20036;-57
2023/03/01 07:07:12;;;;;;;20.77;10.13;;;-1.90;99.90;;;;;;5072500;28;20104;-57
2023/03/01 07:09:37;;;;;;;24.67;9.50;;;-1.90;99.90;;;;;;5072540;28;20424;-57
2023/03/01 07:12:03;;;;;;;19.33;9.67;;;-1.90;99.90;;;;;;5072692;28;20435;-57
2023/03/01 07:14:29;;;;;;;18.93;10.00;;;-1.80;99.90;;;;;;5072647;28;20362;-57
2023/03/01 07:16:55;;;;;;;21.17;10.50;;;-1.70;99.90;;;;;;5071957;28;20477;-57
2023/03/01 07:19:21;;;;;;;20.90;10.03;;;-1.70;99.90;;;;;;5072364;28;20055;-57
2023/03/01 07:21:47;;;;;;;22.23;10.50;;;-1.70;99.90;;;;;;5072340;28;20032;-57
2023/03/01 07:24:13;;;;;;;17.53;9.70;;;-1.60;99.90;;;;;;5071978;28;20466;-57
2023/03/01 07:26:38;;;;;;;17.57;9.53;;;-1.60;99.90;;;;;;5071983;28;20455;-57
2023/03/01 07:29:06;;;;;;;19.83;10.53;;;-1.50;99.90;;;;;;5054321;28;20040;-57
2023/03/01 07:31:32;;;;;;;19.83;9.97;;;-1.40;99.90;;;;;;5071994;28;20116;-58
2023/03/01 07:33:58;;;;;;;20.70;10.23;;;-1.40;99.90;;;;;;5071929;28;20546;-57
2023/03/01 07:36:24;;;;;;;22.50;10.07;;;-1.30;99.90;;;;;;5071898;28;20051;-57
2023/03/01 07:38:51;;;;;;;18.67;9.83;;;-1.20;99.90;;;;;;5071721;28;20107;-57
2023/03/01 07:41:17;;;;;;;19.27;8.87;;;-0.90;99.90;;;;;;5071930;28;20451;-58
2023/03/01 07:43:42;;;;;;;16.87;8.90;;;-0.40;99.90;;;;;;5071594;28;20446;-57
2023/03/01 07:46:08;;;;;;;16.90;8.90;;;0.00;99.90;;;;;;5071796;28;20031;-57
2023/03/01 07:48:34;;;;;;;17.60;9.50;;;0.20;99.90;;;;;;5071731;28;20040;-57
2023/03/01 07:51:01;;;;;;;21.20;9.60;;;0.50;99.90;;;;;;5071988;28;20033;-57
2023/03/01 07:53:28;;;;;;;17.17;9.40;;;0.60;99.90;;;;;;5071544;28;20028;-58
2023/03/01 07:56:01;;;;;;;19.10;9.67;;;0.70;99.90;;;;;;5071699;28;20111;-56
2023/03/01 07:58:27;;;;;;;17.00;9.17;;;0.70;99.90;;;;;;5071152;28;20416;-52
2023/03/01 08:00:53;;;;;;;16.50;9.67;;;0.70;99.90;;;;;;5071369;28;20026;-53
2023/03/01 08:03:19;;;;;;;16.60;9.10;;;0.60;99.90;;;;;;5071323;28;20024;-54
2023/03/01 08:05:44;;;;;;;19.37;9.23;;;0.60;99.90;;;;;;5070610;28;20078;-54
2023/03/01 08:08:10;;;;;;;20.03;10.10;;;0.50;99.90;;;;;;5071147;28;20055;-54
2023/03/01 08:10:36;;;;;;;16.07;9.63;;;0.50;99.90;;;;;;5071201;28;20040;-54
2023/03/01 08:13:02;;;;;;;17.03;9.40;;;0.40;99.90;;;;;;5071139;28;20037;-54
2023/03/01 08:15:27;;;;;;;21.40;10.67;;;0.40;99.90;;;;;;5071263;28;20035;-52
2023/03/01 08:17:53;;;;;;;21.43;9.67;;;0.50;99.90;;;;;;5071172;28;20082;-54
2023/03/01 08:20:19;;;;;;;18.37;9.30;;;0.50;99.90;;;;;;5070965;28;20135;-53
2023/03/01 08:22:45;;;;;;;17.73;10.20;;;0.60;99.90;;;;;;5071000;28;20032;-53
2023/03/01 08:25:10;;;;;;;18.73;9.33;;;0.70;99.90;;;;;;5070959;28;20031;-53
2023/03/01 08:27:36;;;;;;;18.83;9.97;;;0.90;99.90;;;;;;5070638;28;20447;-53
2023/03/01 08:30:02;;;;;;;17.63;9.57;;;1.10;99.90;;;;;;5070970;28;20512;-54
2023/03/01 08:32:28;;;;;;;17.47;9.60;;;1.40;99.90;;;;;;5071107;28;20033;-53
2023/03/01 08:34:53;;;;;;;17.23;8.47;;;1.70;99.90;;;;;;5070650;28;20025;-53
2023/03/01 08:37:19;;;;;;;17.83;8.57;;;2.10;99.90;;;;;;5070695;28;20362;-53
2023/03/01 08:39:46;;;;;;;18.63;8.47;;;2.50;99.90;;;;;;5070574;28;20044;-56
2023/03/01 08:42:11;;;;;;;19.03;8.83;;;2.90;99.90;;;;;;5070735;28;20055;-53
2023/03/01 08:44:37;;;;;;;16.93;8.53;;;2.90;99.90;;;;;;5070436;28;20441;-49
2023/03/01 08:47:04;;;;;;;17.37;8.67;;;3.00;99.90;;;;;;5070596;28;20038;-58
2023/03/01 08:49:32;;;;;;;15.63;8.67;;;2.80;99.90;;;;;;5070642;28;20044;-57
2023/03/01 08:51:58;;;;;;;15.50;8.93;;;2.70;99.90;;;;;;5070725;28;20032;-58
2023/03/01 08:54:24;;;;;;;16.13;8.87;;;2.70;99.90;;;;;;5070473;28;20040;-59
2023/03/01 08:56:50;;;;;;;15.10;8.57;;;2.70;99.90;;;;;;5070232;28;20024;-54
2023/03/01 08:59:17;;;;;;;15.27;8.53;;;2.70;99.90;;;;;;5070685;28;20166;-53
2023/03/01 09:01:43;;;;;;;17.57;8.87;;;2.80;99.90;;;;;;5070615;28;20439;-53
2023/03/01 09:04:10;;;;;;;13.77;8.50;;;2.90;99.90;;;;;;5070451;28;20029;-53
2023/03/01 09:06:36;;;;;;;14.90;8.40;;;3.00;99.90;;;;;;5070402;28;20408;-55
2023/03/01 09:09:03;;;;;;;15.67;8.70;;;3.20;99.90;;;;;;5070435;28;20040;-58
2023/03/01 09:11:29;;;;;;;18.00;8.33;;;3.30;99.90;;;;;;5070353;28;20039;-54
2023/03/01 09:13:55;;;;;;;13.57;8.03;;;3.40;99.90;;;;;;5070451;28;20024;-53
2023/03/01 09:16:22;;;;;;;13.27;7.90;;;3.50;99.90;;;;;;5070181;28;20102;-53
2023/03/01 09:18:52;;;;;;;15.00;8.40;;;3.60;99.90;;;;;;5070188;28;20029;-53
2023/03/01 09:21:20;;;;;;;13.23;8.37;;;3.80;99.90;;;;;;5070392;28;20052;-54
2023/03/01 09:23:47;;;;;;;15.20;7.73;;;4.00;99.90;;;;;;5070619;28;20029;-54
2023/03/01 09:26:18;;;;;;;;;;;3.90;99.90;;;;;;5070839;28;20086;-52
2023/03/01 09:28:45;;;;;;;13.25;7.57;;;4.30;99.90;;;;;;5070378;28;19909;-55
2023/03/01 09:31:14;;;;;;;12.87;7.43;;;5.10;98.80;;;;;;5070369;28;20370;-55
2023/03/01 09:33:41;;;;;;;14.35;8.10;;;5.50;98.30;;;;;;5070218;28;20024;-54
2023/03/01 09:36:12;;;;;;;13.53;8.07;;;5.90;97.20;;;;;;5070402;28;20040;-53
2023/03/01 09:38:37;;;;;;;14.00;8.63;;;5.90;96.60;;;;;;5069712;28;20036;-54
2023/03/01 09:41:15;;;;;;;18.67;7.33;;;5.60;97.10;;;;;;5070285;28;20481;-55
2023/03/01 09:43:53;;;;;;;13.17;7.77;;;5.70;96.20;;;;;;5069987;28;20078;-54
2023/03/01 09:46:21;;;;;;;13.20;7.77;;;5.80;96.40;;;;;;5070255;28;20040;-53
2023/03/01 09:49:03;;;;;;;14.27;7.90;;;6.00;95.60;;;;;;5070094;28;20032;-54
2023/03/01 09:51:35;;;;;;;13.43;7.20;;;6.50;94.40;;;;;;5070484;28;20035;-54
2023/03/01 09:54:03;;;;;;;11.40;7.07;;;7.70;92.10;;;;;;5070145;28;20534;-53
2023/03/01 09:56:41;;;;;;;14.33;7.47;;;7.70;90.80;;;;;;5070088;28;20041;-54
2023/03/01 09:59:31;;;;;;;13.13;7.33;;;8.30;90.10;;;;;;5070143;28;20389;-53
2023/03/01 10:02:29;;;;;;;11.53;7.47;;;8.60;89.30;;;;;;5070433;28;20035;-53
2023/03/01 10:05:21;;;;;;;10.70;7.37;;;8.90;86.20;;;;;;5069962;28;20075;-53
2023/03/01 10:08:02;;;;;;;11.37;7.40;;;9.30;82.90;;;;;;5069931;28;20045;-50
2023/03/01 10:10:48;;;;;;;11.18;6.93;;;10.10;79.40;;;;;;5070230;28;20025;-54
2023/03/01 10:13:17;;;;;;;12.65;7.70;;;10.10;78.30;;;;;;5070161;28;20035;-56
2023/03/01 10:15:54;;;;;;;10.25;6.88;;;10.80;76.10;;;;;;5070165;28;20094;-54
2023/03/01 10:18:33;;;;;;;12.07;6.68;;;11.60;73.30;;;;;;5069823;28;20499;-55
2023/03/01 10:21:01;;;;;;;11.80;7.22;;;12.70;68.90;;;;;;5069911;28;20070;-55
2023/03/01 10:23:30;;;;;;;10.93;6.90;;;13.00;65.60;;;;;;5069935;28;20082;-54
2023/03/01 10:26:34;;;;;;;9.35;6.30;;;13.00;64.10;;;;;;5070208;28;20466;-52
2023/03/01 10:29:11;;;;;;;10.05;6.78;;;13.60;61.80;;;;;;5039451;28;20048;-55
2023/03/01 10:31:46;;;;;;;10.07;6.78;;;12.80;60.60;;;;;;5073810;28;20038;-54
2023/03/01 10:34:17;;;;;;;10.88;6.78;;;12.40;62.10;;;;;;5073576;28;20397;-54
2023/03/01 10:36:47;;;;;;;11.63;6.85;;;11.90;63.80;;;;;;5073277;28;20032;-56
2023/03/01 10:39:18;;;;;;;13.02;7.47;;;11.50;63.70;;;;;;5086195;22;20056;-54
2023/03/01 10:42:02;;;;;;;10.73;6.60;;;11.30;63.30;;;;;;5073554;28;20472;-55
2023/03/01 10:44:40;;;;;;;15.02;6.47;;;11.40;65.30;;;;;;5073373;28;20057;-55
2023/03/01 10:47:15;;;;;;;11.35;6.70;;;11.60;65.40;;;;;;5073259;28;20024;-56
2023/03/01 10:49:52;;;;;;;12.68;7.15;;;10.90;65.70;;;;;;5073116;28;20056;-56
2023/03/01 10:52:22;;;;;;;13.25;7.10;;;10.90;64.50;;;;;;5073378;28;20033;-56
2023/03/01 10:55:22;;;;;;;12.15;6.45;;;10.70;64.10;;;;;;5073131;28;20091;-57
2023/03/01 10:57:47;;;;;;;9.38;5.90;;;10.50;65.80;;;;;;5069726;28;20067;-54
2023/03/01 11:00:22;;;;;;;9.23;5.57;;;10.80;64.70;;;;;;5072772;28;20370;-56
2023/03/01 11:02:59;;;;;;;8.90;5.25;;;11.00;62.20;;;;;;5072980;28;20035;-54
2023/03/01 11:05:28;;;;;;;9.75;6.18;;;11.60;60.20;;;;;;5072779;28;20024;-55
2023/03/01 11:07:58;;;;;;;10.60;6.07;;;11.90;59.40;;;;;;5054672;28;20404;-52
2023/03/01 11:10:35;;;;;;;9.43;5.57;;;11.70;61.40;;;;;;5072659;28;20157;-55
2023/03/01 11:13:18;;;;;;;10.82;6.35;;;11.50;63.20;;;;;;5072774;28;20048;-53
2023/03/01 11:16:00;;;;;;;10.27;6.13;;;11.70;60.50;;;;;;5054572;28;20032;-53
2023/03/01 11:18:27;;;;;;;13.23;6.53;;;11.40;61.00;;;;;;5072285;28;20028;-52
2023/03/01 11:20:55;;;;;;;9.25;5.85;;;11.50;61.10;;;;;;5072243;28;20028;-54
2023/03/01 11:23:22;;;;;;;8.60;5.35;;;11.10;62.90;;;;;;5072475;28;20028;-51
2023/03/01 11:26:02;;;;;;;12.20;6.00;;;10.80;62.50;;;;;;5072503;28;20041;-54
2023/03/01 11:28:29;;;;;;;9.05;5.57;;;10.50;65.70;;;;;;5072191;28;20028;-50
2023/03/01 11:31:04;;;;;;;11.88;6.40;;;10.30;62.80;;;;;;5072175;28;20028;-55
2023/03/01 11:34:02;;;;;;;9.57;6.50;;;9.90;65.80;;;;;;5071963;28;20469;-53
2023/03/01 11:36:42;;;;;;;8.97;5.97;;;10.00;63.40;;;;;;5060248;28;20068;-49
2023/03/01 11:39:33;;;;;;;9.57;5.33;;;9.90;64.00;;;;;;5071994;28;20130;-52
2023/03/01 11:42:27;;;;;;;10.70;5.63;;;10.10;63.20;;;;;;5071966;28;20028;-51
2023/03/01 11:44:58;;;;;;;10.07;6.17;;;10.10;61.80;;;;;;5045152;28;20103;-53
2023/03/01 11:47:38;;;;;;;7.97;5.47;;;10.30;63.00;;;;;;5071705;28;20028;-50
2023/03/01 11:50:13;;;;;;;10.00;5.93;;;10.60;62.20;;;;;;5071598;28;20398;-51
2023/03/01 11:52:54;;;;;;;9.65;5.60;;;11.20;61.10;;;;;;5072017;28;20037;-49
2023/03/01 11:55:27;;;;;;;12.10;5.88;;;10.80;60.80;;;;;;5071760;28;20115;-50
2023/03/01 11:58:05;;;;;;;10.03;5.93;;;11.00;61.30;;;;;;5071496;28;20439;-52
2023/03/01 12:00:47;;;;;;;9.07;5.53;;;10.70;63.40;;;;;;5071421;28;20480;-55
2023/03/01 12:03:43;;;;;;;9.52;5.85;;;10.90;62.10;;;;;;5071588;28;20024;-52
2023/03/01 12:06:41;;;;;;;9.20;5.40;;;11.30;62.00;;;;;;5071552;28;20029;-52
2023/03/01 12:09:31;;;;;;;10.68;5.90;;;11.70;61.70;;;;;;5071195;28;20119;-52
2023/03/01 12:12:26;;;;;;;8.35;5.78;;;11.80;60.00;;;;;;5071301;28;20119;-51
2023/03/01 12:15:08;;;;;;;8.40;5.55;;;12.10;60.00;;;;;;5039687;28;20082;-54
2023/03/01 12:17:59;;;;;;;7.97;5.43;;;12.30;57.40;;;;;;5071240;28;20074;-55
2023/03/01 12:20:39;;;;;;;10.57;5.50;;;12.80;56.90;;;;;;5071103;28;20115;-52
2023/03/01 12:23:33;;;;;;;8.98;5.00;;;12.80;57.30;;;;;;5071176;28;20082;-51
2023/03/01 12:26:01;;;;;;;7.95;5.22;;;12.30;57.00;;;;;;5071010;28;20082;-52
2023/03/01 12:28:45;;;;;;;9.75;5.72;;;12.00;58.50;;;;;;5070978;28;20207;-54
2023/03/01 12:31:29;;;;;;;10.07;5.05;;;10.90;59.30;;;;;;5071010;28;20037;-51
2023/03/01 12:34:27;;;;;;;8.02;5.28;;;11.10;59.70;;;;;;5070760;28;20404;-53
2023/03/01 12:37:21;;;;;;;10.73;5.77;;;11.40;59.00;;;;;;5070568;28;20029;-54
2023/03/01 12:39:49;;;;;;;10.05;5.22;;;11.20;58.60;;;;;;5070549;28;20492;-54
2023/03/01 12:42:47;;;;;;;7.35;4.57;;;11.20;59.10;;;;;;5070727;28;20033;-54
2023/03/01 12:45:30;;;;;;;9.13;5.47;;;11.50;58.10;;;;;;5070723;28;20039;-51
2023/03/01 12:48:23;;;;;;;11.02;5.70;;;11.80;57.40;;;;;;5070859;28;20028;-48
2023/03/01 12:50:53;;;;;;;9.88;5.68;;;12.40;57.50;;;;;;5070525;28;20500;-50
2023/03/01 12:53:45;;;;;;;10.10;5.63;;;12.40;58.50;;;;;;5069927;28;20119;-49
2023/03/01 12:56:19;;;;;;;9.93;6.00;;;12.30;58.70;;;;;;5070666;28;20032;-50
2023/03/01 12:58:58;;;;;;;13.07;6.40;;;12.00;59.30;;;;;;5070279;28;20389;-51
2023/03/01 13:01:36;;;;;;;9.65;6.10;;;11.90;60.00;;;;;;5070847;28;20099;-53